AirNav   Air Wisconsin Up To $57,000 Bonus
 
 871 users online  

MN74 B & D Flyers International Airport
Minnesota Lake, Minnesota, USA

GOING TO MINNESOTA LAKE?


FAA INFORMATION EFFECTIVE 11 AUGUST 2022

Location

FAA Identifier: MN74
Lat/Long: 43-49-49.8500N 093-50-25.8220W
43-49.830833N 093-50.430367W
43.8305139,-93.8405061
(estimated)
Elevation: 1055 ft. / 322 m (estimated)
Variation: 04E (1985)
From city: 1 mile S of MINNESOTA LAKE, MN
Time zone: UTC -5 (UTC -6 during Standard Time)
Zip code: 56068

Airport Operations

Airport use: Private use. Permission required prior to landing
Activation date: 08/1976
Control tower: no
ARTCC: MINNEAPOLIS CENTER
FSS: PRINCETON FLIGHT SERVICE STATION
Attendance: UNATNDD
Wind indicator: yes
Segmented circle: no

Airport Communications

WX AWOS-3 at ACQ (19 nm NE): 118.425 (507-835-3657)

Nearby radio navigation aids

VOR radial/distance  VOR name  Freq  Var
AELr293/22.2ALBERT LEA VOR/DME109.8001E
MKTr165/23.6MANKATO VOR/DME110.8007E
FOWr220/30.2HALFWAY VOR/DME111.2002E

Airport Services

Runway Information

Runway E/W

Dimensions: 2300 x 75 ft. / 701 x 23 m
Surface: turf
RUNWAY E  RUNWAY W
Traffic pattern: leftleft

Airport Ownership and Management from official FAA records

Ownership: Privately-owned
Owner: WILLIAM J. DALY
23595 510TH AVE
MINNESOTA LAKE, MN 56068
Phone 507-462-3635
Manager: WILLIAM J. DALY
23595 510TH AVE
MINNESOTA LAKE, MN 56068
Phone 507-462-3635

Airport Operational Statistics

Aircraft based on the field: 1
Single engine airplanes: 1
    

Additional Remarks

FOR CD CTC MINNEAPOLIS ARTCC AT 651-463-5588.

Instrument Procedures

There are no published instrument procedures at MN74.

Some nearby airports with instrument procedures:

KSBU - Blue Earth Municipal Airport (18 nm SW)
KACQ - Waseca Municipal Airport (19 nm NE)
KAEL - Albert Lea Municipal Airport (22 nm SE)
KMKT - Mankato Regional Airport (24 nm N)
KFRM - Fairmont Municipal Airport (27 nm SW)
 
Loc | Ops | Rwys | IFR | FBO | Links
Com | Nav | Svcs | Stats | Notes
Area around MN74 (B & D Flyers International Airport)
 
Road maps at: MapQuest Bing Google
 
Aerial photo
No photo
 
Sectional chart

 
Airport distance calculator
Flying to B & D Flyers International Airport? Find the distance to fly.

From to MN74

Sunrise and sunset
Times for 16-Aug-2022
 Local
(UTC-5)
 Zulu
(UTC)
Morning civil twilight05:5110:51
Sunrise06:2211:22
Sunset20:1801:18
Evening civil twilight20:4901:49

Current date and time
Zulu (UTC)  17-Aug-2022 04:14:27
Local (UTC-5)  16-Aug-2022 23:14:27
 
METAR
KACQ 
19nm NE 
170355Z AUTO 11003KT 10SM CLR 16/15 A3017 RMK AO2
KAEL 
23nm SE 
170355Z AUTO 00000KT 10SM CLR 16/16 A3017 RMK AO2
KMKT 
23nm N 
170356Z AUTO 14004KT 10SM CLR 19/16 A3015 RMK AO2 SLP208 T01890161
KFRM 
28nm SW 
170356Z AUTO 19003KT 10SM CLR 18/16 A3015 RMK AO2 SLP210 T01830161
KOWA 
31nm NE 
170353Z AUTO 00000KT 10SM CLR 17/14 A3016 RMK AO2
KJYG 
32nm W 
170357Z AUTO 00000KT 10SM CLR 18/17 A3014 RMK AO2 TSNO
KFBL 
37nm NE 
170355Z AUTO 00000KT 10SM CLR 16/14 A3015 RMK AO2
KFXY 
37nm S 
170355Z AUTO 00000KT 10SM CLR 15/15 A3015 RMK AO2
TAF
KMKT 
23nm N 
161730Z 1618/1718 14005KT P6SM BKN040 FM170200 16003KT P6SM SCT100 FM171400 20006KT P6SM SCT050
NOTAMs
Click for the latest NOTAMs
NOTAMs are issued by the DoD/FAA and will open in a separate window not controlled by AirNav.

 

 
 

Would you like to see your business listed on this page?

 If your business provides an interesting product or service to pilots, flight crews, aircraft, or users of the B & D Flyers International Airport, you should consider listing it here.  To start the listing process, click on the button below
 
Add a business
 

Other Pages about B & D Flyers International Airport

Update a link
 
Copyright © AirNav, LLC. All rights reserved. Privacy Policy  Contact